Portada
METAR-TAF:

METAR-TAF

Aeroports :

Hostomel, Ucraïna

latitud: 50-36-01N, longitud: 030-11-37E, altitud: 157 m

Observació

L'informe es va fer fa 20 minuts, a les 02:00 UTC
Vent 19 kt del Est/Sud-Est, variant entre Est/Nord-Est i Sud-Est
Temperatura 14°C
Humitat 94%
Pressió 1003 hPa
Visibilitat: 6000 m
plugim

METAR: UKKM 010200Z AUTO 11010MPS 070V130 6000 -DZ FEW013/// 14/13 Q1003

Hora: 05:20 (02:20 UTC)


TAF: manca

Observacions i pronòstics meteorològics de més de 4000 aeroports (METAR i TAF).

Les estacions disponibles són els punts grocs i vermells al mapa.

Posi el ratolí al punt desitjat per veure el nom de l'estació.

Feu clic per veure les observacions i els pronòstics meteorològics.

Per canviar el mapa: feu clic els botons verds amb una creu de color negre per apropar; al botó verd amb un guió per allunyar la imatge; o en les fletxes verdes per a mapes adjacents.


METAR-TAF: